sensor_id;sensor_type;location;lat;lon;timestamp;temperature;humidity
11922;DHT22;6021;51.182;3.160;2023-11-19T00:02:11;13.30;99.90
11922;DHT22;6021;51.182;3.160;2023-11-19T00:04:39;13.40;99.90
11922;DHT22;6021;51.182;3.160;2023-11-19T00:07:08;13.30;99.90
11922;DHT22;6021;51.182;3.160;2023-11-19T00:09:37;13.20;99.90
11922;DHT22;6021;51.182;3.160;2023-11-19T00:12:07;13.20;99.90
11922;DHT22;6021;51.182;3.160;2023-11-19T00:14:35;13.20;99.90
11922;DHT22;6021;51.182;3.160;2023-11-19T00:17:03;13.20;99.90
11922;DHT22;6021;51.182;3.160;2023-11-19T00:19:32;13.40;99.90
11922;DHT22;6021;51.182;3.160;2023-11-19T00:22:00;13.20;99.90
11922;DHT22;6021;51.182;3.160;2023-11-19T00:24:30;13.20;99.90
11922;DHT22;6021;51.182;3.160;2023-11-19T00:26:59;13.20;99.90
11922;DHT22;6021;51.182;3.160;2023-11-19T00:29:27;13.30;99.90
11922;DHT22;6021;51.182;3.160;2023-11-19T00:31:56;13.30;99.90
11922;DHT22;6021;51.182;3.160;2023-11-19T00:34:24;13.00;99.90
11922;DHT22;6021;51.182;3.160;2023-11-19T00:36:53;13.00;99.90
11922;DHT22;6021;51.182;3.160;2023-11-19T00:39:23;12.90;99.90
11922;DHT22;6021;51.182;3.160;2023-11-19T00:41:51;12.80;99.90
11922;DHT22;6021;51.182;3.160;2023-11-19T00:44:19;12.80;99.90
11922;DHT22;6021;51.182;3.160;2023-11-19T00:46:49;12.80;99.90
11922;DHT22;6021;51.182;3.160;2023-11-19T00:49:17;12.80;99.90
11922;DHT22;6021;51.182;3.160;2023-11-19T00:51:45;12.80;99.90
11922;DHT22;6021;51.182;3.160;2023-11-19T00:54:14;12.90;99.90
11922;DHT22;6021;51.182;3.160;2023-11-19T00:56:42;12.90;99.90
11922;DHT22;6021;51.182;3.160;2023-11-19T00:59:10;12.80;99.90
11922;DHT22;6021;51.182;3.160;2023-11-19T01:01:39;12.80;99.90
11922;DHT22;6021;51.182;3.160;2023-11-19T01:04:07;12.80;99.90
11922;DHT22;6021;51.182;3.160;2023-11-19T01:06:35;12.60;99.90
11922;DHT22;6021;51.182;3.160;2023-11-19T01:09:04;12.60;99.90
11922;DHT22;6021;51.182;3.160;2023-11-19T01:11:32;12.60;99.90
11922;DHT22;6021;51.182;3.160;2023-11-19T01:14:01;12.60;99.90
11922;DHT22;6021;51.182;3.160;2023-11-19T01:16:30;12.50;99.90
11922;DHT22;6021;51.182;3.160;2023-11-19T01:18:58;12.50;99.90
11922;DHT22;6021;51.182;3.160;2023-11-19T01:21:28;12.40;99.90
11922;DHT22;6021;51.182;3.160;2023-11-19T01:23:58;12.30;99.90
11922;DHT22;6021;51.182;3.160;2023-11-19T01:26:27;12.60;99.90
11922;DHT22;6021;51.182;3.160;2023-11-19T01:28:55;12.60;99.90
11922;DHT22;6021;51.182;3.160;2023-11-19T01:31:23;12.40;99.90
11922;DHT22;6021;51.182;3.160;2023-11-19T01:33:51;12.50;99.90
11922;DHT22;6021;51.182;3.160;2023-11-19T01:36:20;12.50;99.90
11922;DHT22;6021;51.182;3.160;2023-11-19T01:38:48;12.50;99.90
11922;DHT22;6021;51.182;3.160;2023-11-19T01:41:17;12.50;99.90
11922;DHT22;6021;51.182;3.160;2023-11-19T01:43:45;12.50;99.90
11922;DHT22;6021;51.182;3.160;2023-11-19T01:46:14;12.60;99.90
11922;DHT22;6021;51.182;3.160;2023-11-19T01:48:45;12.60;99.90
11922;DHT22;6021;51.182;3.160;2023-11-19T01:51:13;12.60;99.90
11922;DHT22;6021;51.182;3.160;2023-11-19T01:53:44;12.60;99.90
11922;DHT22;6021;51.182;3.160;2023-11-19T01:56:14;12.50;99.90
11922;DHT22;6021;51.182;3.160;2023-11-19T01:58:44;12.40;99.90
11922;DHT22;6021;51.182;3.160;2023-11-19T02:01:13;12.40;99.90
11922;DHT22;6021;51.182;3.160;2023-11-19T02:03:42;12.50;99.90
11922;DHT22;6021;51.182;3.160;2023-11-19T02:06:11;12.40;99.90
11922;DHT22;6021;51.182;3.160;2023-11-19T02:08:39;12.50;99.90
11922;DHT22;6021;51.182;3.160;2023-11-19T02:11:08;12.30;99.90
11922;DHT22;6021;51.182;3.160;2023-11-19T02:13:37;12.20;99.90
11922;DHT22;6021;51.182;3.160;2023-11-19T02:16:06;12.10;99.90
11922;DHT22;6021;51.182;3.160;2023-11-19T02:18:36;12.20;99.90
11922;DHT22;6021;51.182;3.160;2023-11-19T02:21:05;12.10;99.90
11922;DHT22;6021;51.182;3.160;2023-11-19T02:23:33;12.20;99.90
11922;DHT22;6021;51.182;3.160;2023-11-19T02:28:36;12.20;99.90
11922;DHT22;6021;51.182;3.160;2023-11-19T02:31:05;12.20;99.90
11922;DHT22;6021;51.182;3.160;2023-11-19T02:33:36;12.20;99.90
11922;DHT22;6021;51.182;3.160;2023-11-19T02:36:06;12.10;99.90
11922;DHT22;6021;51.182;3.160;2023-11-19T02:38:35;12.10;99.90
11922;DHT22;6021;51.182;3.160;2023-11-19T02:41:04;12.30;99.90
11922;DHT22;6021;51.182;3.160;2023-11-19T02:43:33;12.20;99.90
11922;DHT22;6021;51.182;3.160;2023-11-19T02:46:02;12.00;99.90
11922;DHT22;6021;51.182;3.160;2023-11-19T02:48:33;12.10;99.90
11922;DHT22;6021;51.182;3.160;2023-11-19T02:51:03;12.10;99.90
11922;DHT22;6021;51.182;3.160;2023-11-19T02:53:32;12.00;99.90
11922;DHT22;6021;51.182;3.160;2023-11-19T02:56:00;12.00;99.90
11922;DHT22;6021;51.182;3.160;2023-11-19T02:58:30;12.20;99.90
11922;DHT22;6021;51.182;3.160;2023-11-19T03:00:59;12.00;99.90
11922;DHT22;6021;51.182;3.160;2023-11-19T03:03:29;12.20;99.90
11922;DHT22;6021;51.182;3.160;2023-11-19T03:05:59;11.70;99.90
11922;DHT22;6021;51.182;3.160;2023-11-19T03:08:29;12.00;99.90
11922;DHT22;6021;51.182;3.160;2023-11-19T03:10:57;11.80;99.90
11922;DHT22;6021;51.182;3.160;2023-11-19T03:13:26;11.60;99.90
11922;DHT22;6021;51.182;3.160;2023-11-19T03:15:54;11.60;99.90
11922;DHT22;6021;51.182;3.160;2023-11-19T03:18:23;11.70;99.90
11922;DHT22;6021;51.182;3.160;2023-11-19T03:20:51;11.70;99.90
11922;DHT22;6021;51.182;3.160;2023-11-19T03:23:19;11.70;99.90
11922;DHT22;6021;51.182;3.160;2023-11-19T03:25:48;11.70;99.90
11922;DHT22;6021;51.182;3.160;2023-11-19T03:28:19;11.70;99.90
11922;DHT22;6021;51.182;3.160;2023-11-19T03:30:47;11.60;99.90
11922;DHT22;6021;51.182;3.160;2023-11-19T03:33:15;11.30;99.90
11922;DHT22;6021;51.182;3.160;2023-11-19T03:35:44;11.60;99.90
11922;DHT22;6021;51.182;3.160;2023-11-19T03:38:13;11.60;99.90
11922;DHT22;6021;51.182;3.160;2023-11-19T03:40:41;11.40;99.90
11922;DHT22;6021;51.182;3.160;2023-11-19T03:43:10;11.40;99.90
11922;DHT22;6021;51.182;3.160;2023-11-19T03:45:40;11.30;99.90
11922;DHT22;6021;51.182;3.160;2023-11-19T03:48:08;11.60;99.90
11922;DHT22;6021;51.182;3.160;2023-11-19T03:50:36;11.40;99.90
11922;DHT22;6021;51.182;3.160;2023-11-19T03:53:05;11.30;99.90
11922;DHT22;6021;51.182;3.160;2023-11-19T03:55:33;11.50;99.90
11922;DHT22;6021;51.182;3.160;2023-11-19T03:58:01;11.20;99.90
11922;DHT22;6021;51.182;3.160;2023-11-19T04:00:29;11.30;99.90
11922;DHT22;6021;51.182;3.160;2023-11-19T04:02:58;11.20;99.90
11922;DHT22;6021;51.182;3.160;2023-11-19T04:05:26;11.30;99.90
11922;DHT22;6021;51.182;3.160;2023-11-19T04:07:54;11.00;99.90
11922;DHT22;6021;51.182;3.160;2023-11-19T04:10:23;11.10;99.90
11922;DHT22;6021;51.182;3.160;2023-11-19T04:12:51;11.20;99.90
11922;DHT22;6021;51.182;3.160;2023-11-19T04:15:19;11.20;99.90
11922;DHT22;6021;51.182;3.160;2023-11-19T04:17:48;11.20;99.90
11922;DHT22;6021;51.182;3.160;2023-11-19T04:20:16;11.20;99.90
11922;DHT22;6021;51.182;3.160;2023-11-19T04:22:44;11.30;99.90
11922;DHT22;6021;51.182;3.160;2023-11-19T04:25:13;11.60;99.90
11922;DHT22;6021;51.182;3.160;2023-11-19T04:27:42;11.30;99.90
11922;DHT22;6021;51.182;3.160;2023-11-19T04:30:11;11.30;99.90
11922;DHT22;6021;51.182;3.160;2023-11-19T04:32:39;11.60;99.90
11922;DHT22;6021;51.182;3.160;2023-11-19T04:35:08;11.10;99.90
11922;DHT22;6021;51.182;3.160;2023-11-19T04:37:37;11.00;99.90
11922;DHT22;6021;51.182;3.160;2023-11-19T04:40:06;11.20;99.90
11922;DHT22;6021;51.182;3.160;2023-11-19T04:42:35;11.00;99.90
11922;DHT22;6021;51.182;3.160;2023-11-19T04:45:03;11.10;99.90
11922;DHT22;6021;51.182;3.160;2023-11-19T04:47:34;11.00;99.90
11922;DHT22;6021;51.182;3.160;2023-11-19T04:50:03;11.00;99.90
11922;DHT22;6021;51.182;3.160;2023-11-19T04:52:31;10.90;99.90
11922;DHT22;6021;51.182;3.160;2023-11-19T04:54:59;10.90;99.90
11922;DHT22;6021;51.182;3.160;2023-11-19T04:57:28;11.00;99.90
11922;DHT22;6021;51.182;3.160;2023-11-19T04:59:56;10.90;99.90
11922;DHT22;6021;51.182;3.160;2023-11-19T05:02:25;11.20;99.90
11922;DHT22;6021;51.182;3.160;2023-11-19T05:04:53;11.00;99.90
11922;DHT22;6021;51.182;3.160;2023-11-19T05:07:21;11.00;99.90
11922;DHT22;6021;51.182;3.160;2023-11-19T05:09:50;11.00;99.90
11922;DHT22;6021;51.182;3.160;2023-11-19T05:12:18;11.30;99.90
11922;DHT22;6021;51.182;3.160;2023-11-19T05:14:46;11.10;99.90
11922;DHT22;6021;51.182;3.160;2023-11-19T05:17:17;11.00;99.90
11922;DHT22;6021;51.182;3.160;2023-11-19T05:19:46;11.30;99.90
11922;DHT22;6021;51.182;3.160;2023-11-19T05:22:15;10.90;99.90
11922;DHT22;6021;51.182;3.160;2023-11-19T05:24:44;11.00;99.90
11922;DHT22;6021;51.182;3.160;2023-11-19T05:27:12;11.00;99.90
11922;DHT22;6021;51.182;3.160;2023-11-19T05:29:41;10.90;99.90
11922;DHT22;6021;51.182;3.160;2023-11-19T05:32:10;11.00;99.90
11922;DHT22;6021;51.182;3.160;2023-11-19T05:34:39;11.30;99.90
11922;DHT22;6021;51.182;3.160;2023-11-19T05:37:07;11.20;99.90
11922;DHT22;6021;51.182;3.160;2023-11-19T05:39:37;11.10;99.90
11922;DHT22;6021;51.182;3.160;2023-11-19T05:42:05;11.20;99.90
11922;DHT22;6021;51.182;3.160;2023-11-19T05:44:34;11.10;99.90
11922;DHT22;6021;51.182;3.160;2023-11-19T05:47:02;11.00;99.90
11922;DHT22;6021;51.182;3.160;2023-11-19T05:49:31;10.90;99.90
11922;DHT22;6021;51.182;3.160;2023-11-19T05:51:59;10.90;99.90
11922;DHT22;6021;51.182;3.160;2023-11-19T05:54:29;10.90;99.90
11922;DHT22;6021;51.182;3.160;2023-11-19T05:56:58;10.90;99.90
11922;DHT22;6021;51.182;3.160;2023-11-19T05:59:27;11.10;99.90
11922;DHT22;6021;51.182;3.160;2023-11-19T06:01:57;10.80;99.90
11922;DHT22;6021;51.182;3.160;2023-11-19T06:04:25;10.80;99.90
11922;DHT22;6021;51.182;3.160;2023-11-19T06:06:54;10.90;99.90
11922;DHT22;6021;51.182;3.160;2023-11-19T06:09:22;10.90;99.90
11922;DHT22;6021;51.182;3.160;2023-11-19T06:11:51;11.00;99.90
11922;DHT22;6021;51.182;3.160;2023-11-19T06:14:20;10.90;99.90
11922;DHT22;6021;51.182;3.160;2023-11-19T06:16:48;10.80;99.90
11922;DHT22;6021;51.182;3.160;2023-11-19T06:19:16;10.70;99.90
11922;DHT22;6021;51.182;3.160;2023-11-19T06:21:44;10.60;99.90
11922;DHT22;6021;51.182;3.160;2023-11-19T06:24:13;10.70;99.90
11922;DHT22;6021;51.182;3.160;2023-11-19T06:26:41;10.80;99.90
11922;DHT22;6021;51.182;3.160;2023-11-19T06:29:10;10.80;99.90
11922;DHT22;6021;51.182;3.160;2023-11-19T06:31:40;10.70;99.90
11922;DHT22;6021;51.182;3.160;2023-11-19T06:34:08;10.80;99.90
11922;DHT22;6021;51.182;3.160;2023-11-19T06:36:37;10.80;99.90
11922;DHT22;6021;51.182;3.160;2023-11-19T06:39:05;10.70;99.90
11922;DHT22;6021;51.182;3.160;2023-11-19T06:41:34;10.90;99.90
11922;DHT22;6021;51.182;3.160;2023-11-19T06:44:04;10.90;99.90
11922;DHT22;6021;51.182;3.160;2023-11-19T06:46:32;10.90;99.90
11922;DHT22;6021;51.182;3.160;2023-11-19T06:49:04;10.90;99.90
11922;DHT22;6021;51.182;3.160;2023-11-19T06:51:32;10.70;99.90
11922;DHT22;6021;51.182;3.160;2023-11-19T06:54:01;10.80;99.90
11922;DHT22;6021;51.182;3.160;2023-11-19T06:56:29;10.90;99.90
11922;DHT22;6021;51.182;3.160;2023-11-19T06:58:58;10.90;99.90
11922;DHT22;6021;51.182;3.160;2023-11-19T07:01:26;10.90;99.90
11922;DHT22;6021;51.182;3.160;2023-11-19T07:03:54;11.00;99.90
11922;DHT22;6021;51.182;3.160;2023-11-19T07:06:24;10.90;99.90
11922;DHT22;6021;51.182;3.160;2023-11-19T07:08:53;11.00;99.90
11922;DHT22;6021;51.182;3.160;2023-11-19T07:11:22;11.00;99.90
11922;DHT22;6021;51.182;3.160;2023-11-19T07:13:50;10.90;99.90
11922;DHT22;6021;51.182;3.160;2023-11-19T07:16:18;11.00;99.90
11922;DHT22;6021;51.182;3.160;2023-11-19T07:18:49;11.00;99.90
11922;DHT22;6021;51.182;3.160;2023-11-19T07:21:17;10.90;99.90
11922;DHT22;6021;51.182;3.160;2023-11-19T07:23:47;10.90;99.90
11922;DHT22;6021;51.182;3.160;2023-11-19T07:26:15;10.70;99.90
11922;DHT22;6021;51.182;3.160;2023-11-19T07:28:44;10.90;99.90
11922;DHT22;6021;51.182;3.160;2023-11-19T07:31:14;10.90;99.90
11922;DHT22;6021;51.182;3.160;2023-11-19T07:33:42;10.70;99.90
11922;DHT22;6021;51.182;3.160;2023-11-19T07:36:11;10.80;99.90
11922;DHT22;6021;51.182;3.160;2023-11-19T07:38:40;10.90;99.90
11922;DHT22;6021;51.182;3.160;2023-11-19T07:41:08;11.00;99.90
11922;DHT22;6021;51.182;3.160;2023-11-19T07:43:41;11.10;99.90
11922;DHT22;6021;51.182;3.160;2023-11-19T07:46:12;11.10;99.90
11922;DHT22;6021;51.182;3.160;2023-11-19T07:48:41;11.00;99.90
11922;DHT22;6021;51.182;3.160;2023-11-19T07:51:11;10.90;99.90
11922;DHT22;6021;51.182;3.160;2023-11-19T07:53:40;10.90;99.90
11922;DHT22;6021;51.182;3.160;2023-11-19T07:56:09;11.00;99.90
11922;DHT22;6021;51.182;3.160;2023-11-19T07:58:37;11.20;99.90
11922;DHT22;6021;51.182;3.160;2023-11-19T08:01:06;11.00;99.90
11922;DHT22;6021;51.182;3.160;2023-11-19T08:03:34;11.00;99.90
11922;DHT22;6021;51.182;3.160;2023-11-19T08:06:04;11.10;99.90
11922;DHT22;6021;51.182;3.160;2023-11-19T08:08:34;11.00;99.90
11922;DHT22;6021;51.182;3.160;2023-11-19T08:11:03;11.00;99.90
11922;DHT22;6021;51.182;3.160;2023-11-19T08:13:32;11.00;99.90
11922;DHT22;6021;51.182;3.160;2023-11-19T08:16:00;11.20;99.90
11922;DHT22;6021;51.182;3.160;2023-11-19T08:18:29;11.20;99.90
11922;DHT22;6021;51.182;3.160;2023-11-19T08:20:57;11.20;99.90
11922;DHT22;6021;51.182;3.160;2023-11-19T08:23:27;11.30;99.90
11922;DHT22;6021;51.182;3.160;2023-11-19T08:25:55;11.20;99.90
11922;DHT22;6021;51.182;3.160;2023-11-19T08:28:24;11.40;99.90
11922;DHT22;6021;51.182;3.160;2023-11-19T08:30:52;11.40;99.90
11922;DHT22;6021;51.182;3.160;2023-11-19T08:33:21;11.30;99.90
11922;DHT22;6021;51.182;3.160;2023-11-19T08:35:49;11.40;99.90
11922;DHT22;6021;51.182;3.160;2023-11-19T08:38:18;11.40;99.90
11922;DHT22;6021;51.182;3.160;2023-11-19T08:40:46;11.40;99.90
11922;DHT22;6021;51.182;3.160;2023-11-19T08:43:15;11.30;99.90
11922;DHT22;6021;51.182;3.160;2023-11-19T08:45:43;11.40;99.90
11922;DHT22;6021;51.182;3.160;2023-11-19T08:48:11;11.20;99.90
11922;DHT22;6021;51.182;3.160;2023-11-19T08:50:40;11.60;99.90
11922;DHT22;6021;51.182;3.160;2023-11-19T08:53:08;11.30;99.90
11922;DHT22;6021;51.182;3.160;2023-11-19T08:55:36;11.50;99.90
11922;DHT22;6021;51.182;3.160;2023-11-19T08:58:05;11.50;99.90
11922;DHT22;6021;51.182;3.160;2023-11-19T09:00:34;11.60;99.90
11922;DHT22;6021;51.182;3.160;2023-11-19T09:03:02;11.70;99.90
11922;DHT22;6021;51.182;3.160;2023-11-19T09:05:30;12.00;99.90
11922;DHT22;6021;51.182;3.160;2023-11-19T09:07:59;11.90;99.90
11922;DHT22;6021;51.182;3.160;2023-11-19T09:10:27;11.90;99.90
11922;DHT22;6021;51.182;3.160;2023-11-19T09:12:56;12.00;99.90
11922;DHT22;6021;51.182;3.160;2023-11-19T09:15:25;12.10;99.90
11922;DHT22;6021;51.182;3.160;2023-11-19T09:17:53;12.10;99.90
11922;DHT22;6021;51.182;3.160;2023-11-19T09:20:41;12.20;99.90
11922;DHT22;6021;51.182;3.160;2023-11-19T09:23:09;12.10;99.90
11922;DHT22;6021;51.182;3.160;2023-11-19T09:25:37;12.10;99.90
11922;DHT22;6021;51.182;3.160;2023-11-19T09:28:06;12.00;99.90
11922;DHT22;6021;51.182;3.160;2023-11-19T09:30:36;11.70;99.90
11922;DHT22;6021;51.182;3.160;2023-11-19T09:33:04;11.90;99.90
11922;DHT22;6021;51.182;3.160;2023-11-19T09:35:32;11.80;99.90
11922;DHT22;6021;51.182;3.160;2023-11-19T09:38:01;11.90;99.90
11922;DHT22;6021;51.182;3.160;2023-11-19T09:40:30;12.00;99.90
11922;DHT22;6021;51.182;3.160;2023-11-19T09:42:59;12.00;99.90
11922;DHT22;6021;51.182;3.160;2023-11-19T09:45:28;11.90;99.90
11922;DHT22;6021;51.182;3.160;2023-11-19T09:47:57;12.00;99.90
11922;DHT22;6021;51.182;3.160;2023-11-19T09:50:27;12.30;99.90
11922;DHT22;6021;51.182;3.160;2023-11-19T09:52:56;12.20;99.90
11922;DHT22;6021;51.182;3.160;2023-11-19T09:55:24;12.30;99.90
11922;DHT22;6021;51.182;3.160;2023-11-19T09:57:53;12.20;99.90
11922;DHT22;6021;51.182;3.160;2023-11-19T10:00:22;12.30;99.90
11922;DHT22;6021;51.182;3.160;2023-11-19T10:02:50;12.40;99.90
11922;DHT22;6021;51.182;3.160;2023-11-19T10:05:20;12.20;99.90
11922;DHT22;6021;51.182;3.160;2023-11-19T10:07:49;12.30;99.90
11922;DHT22;6021;51.182;3.160;2023-11-19T10:10:17;12.30;99.90
11922;DHT22;6021;51.182;3.160;2023-11-19T10:12:46;12.50;99.90
11922;DHT22;6021;51.182;3.160;2023-11-19T10:15:20;12.30;99.90
11922;DHT22;6021;51.182;3.160;2023-11-19T10:17:46;12.40;99.90
11922;DHT22;6021;51.182;3.160;2023-11-19T10:20:14;12.40;99.90
11922;DHT22;6021;51.182;3.160;2023-11-19T10:22:43;12.40;99.90
11922;DHT22;6021;51.182;3.160;2023-11-19T10:25:22;12.50;99.90
11922;DHT22;6021;51.182;3.160;2023-11-19T10:27:51;12.40;99.90
11922;DHT22;6021;51.182;3.160;2023-11-19T10:30:24;12.40;99.90
11922;DHT22;6021;51.182;3.160;2023-11-19T10:33:11;12.60;99.90
11922;DHT22;6021;51.182;3.160;2023-11-19T10:35:57;12.40;99.90
11922;DHT22;6021;51.182;3.160;2023-11-19T10:38:26;12.50;99.90
11922;DHT22;6021;51.182;3.160;2023-11-19T10:40:55;12.30;99.90
11922;DHT22;6021;51.182;3.160;2023-11-19T10:43:23;12.50;99.90
11922;DHT22;6021;51.182;3.160;2023-11-19T10:45:52;12.50;99.90
11922;DHT22;6021;51.182;3.160;2023-11-19T10:48:20;12.50;99.90
11922;DHT22;6021;51.182;3.160;2023-11-19T10:50:53;12.60;99.90
11922;DHT22;6021;51.182;3.160;2023-11-19T10:53:23;12.70;99.90
11922;DHT22;6021;51.182;3.160;2023-11-19T10:55:54;12.70;99.90
11922;DHT22;6021;51.182;3.160;2023-11-19T10:58:27;12.60;99.90
11922;DHT22;6021;51.182;3.160;2023-11-19T11:00:59;12.60;99.90
11922;DHT22;6021;51.182;3.160;2023-11-19T11:03:29;12.60;99.90
11922;DHT22;6021;51.182;3.160;2023-11-19T11:06:01;12.50;99.90
11922;DHT22;6021;51.182;3.160;2023-11-19T11:08:31;12.70;99.90
11922;DHT22;6021;51.182;3.160;2023-11-19T11:10:59;12.50;99.90
11922;DHT22;6021;51.182;3.160;2023-11-19T11:13:28;12.60;99.90
11922;DHT22;6021;51.182;3.160;2023-11-19T11:15:58;12.40;99.90
11922;DHT22;6021;51.182;3.160;2023-11-19T11:18:27;12.20;99.90
11922;DHT22;6021;51.182;3.160;2023-11-19T11:21:07;12.10;99.90
11922;DHT22;6021;51.182;3.160;2023-11-19T11:32:03;12.40;99.90
11922;DHT22;6021;51.182;3.160;2023-11-19T11:40:02;12.90;99.90
11922;DHT22;6021;51.182;3.160;2023-11-19T11:42:36;13.00;99.90
11922;DHT22;6021;51.182;3.160;2023-11-19T11:45:07;13.00;99.90
11922;DHT22;6021;51.182;3.160;2023-11-19T11:50:25;12.80;99.90
11922;DHT22;6021;51.182;3.160;2023-11-19T11:55:37;12.60;99.90
11922;DHT22;6021;51.182;3.160;2023-11-19T11:58:06;12.70;99.90
11922;DHT22;6021;51.182;3.160;2023-11-19T12:00:39;12.80;99.90
11922;DHT22;6021;51.182;3.160;2023-11-19T12:03:08;12.70;99.90
11922;DHT22;6021;51.182;3.160;2023-11-19T12:05:42;13.00;99.90
11922;DHT22;6021;51.182;3.160;2023-11-19T12:08:12;12.80;99.90
11922;DHT22;6021;51.182;3.160;2023-11-19T12:10:55;12.80;99.90
11922;DHT22;6021;51.182;3.160;2023-11-19T12:13:46;13.00;99.90
11922;DHT22;6021;51.182;3.160;2023-11-19T12:16:13;12.50;99.90
11922;DHT22;6021;51.182;3.160;2023-11-19T12:18:41;12.50;99.90
11922;DHT22;6021;51.182;3.160;2023-11-19T12:21:10;12.60;99.90
11922;DHT22;6021;51.182;3.160;2023-11-19T12:23:46;12.50;99.90
11922;DHT22;6021;51.182;3.160;2023-11-19T12:26:36;12.40;99.90
11922;DHT22;6021;51.182;3.160;2023-11-19T12:29:05;12.70;99.90
11922;DHT22;6021;51.182;3.160;2023-11-19T12:31:33;12.70;99.90
11922;DHT22;6021;51.182;3.160;2023-11-19T12:34:05;12.40;99.90
11922;DHT22;6021;51.182;3.160;2023-11-19T12:36:34;12.60;99.90
11922;DHT22;6021;51.182;3.160;2023-11-19T12:39:03;12.40;99.90
11922;DHT22;6021;51.182;3.160;2023-11-19T12:41:31;12.40;99.90
11922;DHT22;6021;51.182;3.160;2023-11-19T12:44:10;12.40;99.90
11922;DHT22;6021;51.182;3.160;2023-11-19T12:46:39;12.40;99.90
11922;DHT22;6021;51.182;3.160;2023-11-19T12:49:07;12.30;99.90
11922;DHT22;6021;51.182;3.160;2023-11-19T12:51:37;12.30;99.90
11922;DHT22;6021;51.182;3.160;2023-11-19T12:54:05;12.30;99.90
11922;DHT22;6021;51.182;3.160;2023-11-19T12:56:34;12.30;99.90
11922;DHT22;6021;51.182;3.160;2023-11-19T12:59:12;12.40;99.90
11922;DHT22;6021;51.182;3.160;2023-11-19T13:01:54;12.40;99.90
11922;DHT22;6021;51.182;3.160;2023-11-19T13:04:27;12.30;99.90
11922;DHT22;6021;51.182;3.160;2023-11-19T13:06:53;12.60;99.90
11922;DHT22;6021;51.182;3.160;2023-11-19T13:09:28;12.40;99.90
11922;DHT22;6021;51.182;3.160;2023-11-19T13:11:57;12.40;99.90
11922;DHT22;6021;51.182;3.160;2023-11-19T13:14:37;12.40;99.90
11922;DHT22;6021;51.182;3.160;2023-11-19T13:16:58;12.50;99.90
11922;DHT22;6021;51.182;3.160;2023-11-19T13:19:26;12.40;99.90
11922;DHT22;6021;51.182;3.160;2023-11-19T13:21:55;12.30;99.90
11922;DHT22;6021;51.182;3.160;2023-11-19T13:24:23;12.40;99.90
11922;DHT22;6021;51.182;3.160;2023-11-19T13:26:51;12.30;99.90
11922;DHT22;6021;51.182;3.160;2023-11-19T13:29:20;12.20;99.90
11922;DHT22;6021;51.182;3.160;2023-11-19T13:31:48;12.10;99.90
11922;DHT22;6021;51.182;3.160;2023-11-19T13:34:17;12.00;99.90
11922;DHT22;6021;51.182;3.160;2023-11-19T13:36:45;12.00;99.90
11922;DHT22;6021;51.182;3.160;2023-11-19T13:39:14;12.10;99.90
11922;DHT22;6021;51.182;3.160;2023-11-19T13:41:44;12.10;99.90
11922;DHT22;6021;51.182;3.160;2023-11-19T13:44:12;12.10;99.90
11922;DHT22;6021;51.182;3.160;2023-11-19T13:46:46;12.10;99.90
11922;DHT22;6021;51.182;3.160;2023-11-19T13:49:14;12.20;99.90
11922;DHT22;6021;51.182;3.160;2023-11-19T13:51:42;12.10;99.90
11922;DHT22;6021;51.182;3.160;2023-11-19T13:54:11;12.10;99.90
11922;DHT22;6021;51.182;3.160;2023-11-19T13:56:41;12.10;99.90
11922;DHT22;6021;51.182;3.160;2023-11-19T13:59:11;12.10;99.90
11922;DHT22;6021;51.182;3.160;2023-11-19T14:01:40;11.90;99.90
11922;DHT22;6021;51.182;3.160;2023-11-19T14:04:08;12.10;99.90
11922;DHT22;6021;51.182;3.160;2023-11-19T14:06:37;12.40;99.90
11922;DHT22;6021;51.182;3.160;2023-11-19T14:09:07;12.20;99.90
11922;DHT22;6021;51.182;3.160;2023-11-19T14:11:35;12.20;99.90
11922;DHT22;6021;51.182;3.160;2023-11-19T14:14:03;12.20;99.90
11922;DHT22;6021;51.182;3.160;2023-11-19T14:16:32;12.30;99.90
11922;DHT22;6021;51.182;3.160;2023-11-19T14:19:01;12.30;99.90
11922;DHT22;6021;51.182;3.160;2023-11-19T14:21:30;12.30;99.90
11922;DHT22;6021;51.182;3.160;2023-11-19T14:23:58;12.00;99.90
11922;DHT22;6021;51.182;3.160;2023-11-19T14:26:27;12.30;99.90
11922;DHT22;6021;51.182;3.160;2023-11-19T14:28:55;12.10;99.90
11922;DHT22;6021;51.182;3.160;2023-11-19T14:31:23;12.10;99.90
11922;DHT22;6021;51.182;3.160;2023-11-19T14:33:53;12.10;99.90
11922;DHT22;6021;51.182;3.160;2023-11-19T14:36:21;11.90;99.90
11922;DHT22;6021;51.182;3.160;2023-11-19T14:38:50;12.00;99.90
11922;DHT22;6021;51.182;3.160;2023-11-19T14:41:18;12.00;99.90
11922;DHT22;6021;51.182;3.160;2023-11-19T14:43:46;12.10;99.90
11922;DHT22;6021;51.182;3.160;2023-11-19T14:46:15;12.00;99.90
11922;DHT22;6021;51.182;3.160;2023-11-19T14:48:43;11.90;99.90
11922;DHT22;6021;51.182;3.160;2023-11-19T14:51:12;12.10;99.90
11922;DHT22;6021;51.182;3.160;2023-11-19T14:53:40;12.00;99.90
11922;DHT22;6021;51.182;3.160;2023-11-19T14:56:10;11.90;99.90
11922;DHT22;6021;51.182;3.160;2023-11-19T14:58:40;12.10;99.90
11922;DHT22;6021;51.182;3.160;2023-11-19T15:01:13;11.90;99.90
11922;DHT22;6021;51.182;3.160;2023-11-19T15:03:41;11.90;99.90
11922;DHT22;6021;51.182;3.160;2023-11-19T15:06:10;11.80;99.90
11922;DHT22;6021;51.182;3.160;2023-11-19T15:08:38;11.90;99.90
11922;DHT22;6021;51.182;3.160;2023-11-19T15:11:07;11.70;99.90
11922;DHT22;6021;51.182;3.160;2023-11-19T15:13:36;11.60;99.90
11922;DHT22;6021;51.182;3.160;2023-11-19T15:16:05;11.60;99.90
11922;DHT22;6021;51.182;3.160;2023-11-19T15:18:34;11.70;99.90
11922;DHT22;6021;51.182;3.160;2023-11-19T15:21:02;11.70;99.90
11922;DHT22;6021;51.182;3.160;2023-11-19T15:23:31;11.80;99.90
11922;DHT22;6021;51.182;3.160;2023-11-19T15:25:59;11.70;99.90
11922;DHT22;6021;51.182;3.160;2023-11-19T15:28:27;11.60;99.90
11922;DHT22;6021;51.182;3.160;2023-11-19T15:30:56;11.70;99.90
11922;DHT22;6021;51.182;3.160;2023-11-19T15:33:25;11.60;99.90
11922;DHT22;6021;51.182;3.160;2023-11-19T15:35:54;11.60;99.90
11922;DHT22;6021;51.182;3.160;2023-11-19T15:38:23;11.70;99.90
11922;DHT22;6021;51.182;3.160;2023-11-19T15:40:51;11.60;99.90
11922;DHT22;6021;51.182;3.160;2023-11-19T15:43:19;11.90;99.90
11922;DHT22;6021;51.182;3.160;2023-11-19T15:45:48;11.60;99.90
11922;DHT22;6021;51.182;3.160;2023-11-19T15:48:16;11.90;99.90
11922;DHT22;6021;51.182;3.160;2023-11-19T15:50:45;11.60;99.90
11922;DHT22;6021;51.182;3.160;2023-11-19T15:53:14;11.60;99.90
11922;DHT22;6021;51.182;3.160;2023-11-19T15:55:42;11.60;99.90
11922;DHT22;6021;51.182;3.160;2023-11-19T15:58:11;11.60;99.90
11922;DHT22;6021;51.182;3.160;2023-11-19T16:00:39;11.80;99.90
11922;DHT22;6021;51.182;3.160;2023-11-19T16:03:09;11.70;99.90
11922;DHT22;6021;51.182;3.160;2023-11-19T16:05:38;11.80;99.90
11922;DHT22;6021;51.182;3.160;2023-11-19T16:08:06;11.70;99.90
11922;DHT22;6021;51.182;3.160;2023-11-19T16:10:37;11.70;99.90
11922;DHT22;6021;51.182;3.160;2023-11-19T16:13:14;11.60;99.90
11922;DHT22;6021;51.182;3.160;2023-11-19T16:15:42;11.70;99.90
11922;DHT22;6021;51.182;3.160;2023-11-19T16:18:11;11.70;99.90
11922;DHT22;6021;51.182;3.160;2023-11-19T16:20:40;11.90;99.90